createdAt,value
2022-09-12T00:00:13.980Z,23.14
2022-09-12T00:00:45.514Z,23.13
2022-09-12T00:01:16.940Z,23.15
2022-09-12T00:01:48.399Z,23.14
2022-09-12T00:02:19.838Z,23.14
2022-09-12T00:02:51.260Z,23.12
2022-09-12T00:03:22.644Z,23.11
2022-09-12T00:03:54.029Z,23.13
2022-09-12T00:04:25.431Z,23.12
2022-09-12T00:04:56.817Z,23.13
2022-09-12T00:05:28.251Z,23.12
2022-09-12T00:05:59.627Z,23.11
2022-09-12T00:06:31.016Z,23.10
2022-09-12T00:07:02.424Z,23.09
2022-09-12T00:07:33.823Z,23.08
2022-09-12T00:08:05.207Z,23.09
2022-09-12T00:08:36.587Z,23.08
2022-09-12T00:09:07.996Z,23.08
2022-09-12T00:09:39.395Z,23.07
2022-09-12T00:10:10.776Z,23.08
2022-09-12T00:10:42.296Z,23.07
2022-09-12T00:11:13.706Z,23.08
2022-09-12T00:11:45.089Z,23.06
2022-09-12T00:12:16.473Z,23.06
2022-09-12T00:12:47.879Z,23.07
2022-09-12T00:13:19.261Z,23.05
2022-09-12T00:13:50.647Z,23.05
2022-09-12T00:14:22.030Z,23.04
2022-09-12T00:14:53.416Z,23.04
2022-09-12T00:15:24.808Z,23.04
2022-09-12T00:15:56.260Z,23.03
2022-09-12T00:16:27.724Z,23.04
2022-09-12T00:16:59.158Z,23.04
2022-09-12T00:17:30.559Z,23.03
2022-09-12T00:18:01.963Z,23.04
2022-09-12T00:18:33.360Z,23.03
2022-09-12T00:19:04.765Z,23.03
2022-09-12T00:19:36.153Z,23.04
2022-09-12T00:20:07.560Z,23.03
2022-09-12T00:20:38.968Z,23.03
2022-09-12T00:21:10.449Z,23.03
2022-09-12T00:21:41.854Z,23.02
2022-09-12T00:22:13.235Z,23.02
2022-09-12T00:22:44.639Z,23.01
2022-09-12T00:23:16.015Z,23.01
2022-09-12T00:23:47.443Z,23.00
2022-09-12T00:24:18.835Z,23.00
2022-09-12T00:24:50.222Z,23.00
2022-09-12T00:25:21.613Z,23.01
2022-09-12T00:25:53.011Z,23.00
2022-09-12T00:26:24.479Z,23.00
2022-09-12T00:26:55.863Z,22.99
2022-09-12T00:27:27.256Z,22.99
2022-09-12T00:27:58.659Z,22.99
2022-09-12T00:28:30.059Z,22.99
2022-09-12T00:29:01.458Z,22.96
2022-09-12T00:29:32.851Z,22.96
2022-09-12T00:30:04.251Z,22.96
2022-09-12T00:30:35.640Z,22.95
2022-09-12T00:31:07.056Z,22.95
2022-09-12T00:31:38.586Z,22.96
2022-09-12T00:32:10.067Z,22.96
2022-09-12T00:32:41.451Z,22.94
2022-09-12T00:33:12.857Z,22.94
2022-09-12T00:33:44.240Z,22.93
2022-09-12T00:34:15.645Z,22.93
2022-09-12T00:34:47.057Z,22.93
2022-09-12T00:35:18.464Z,22.92
2022-09-12T00:35:49.867Z,22.92
2022-09-12T00:36:21.249Z,22.93
2022-09-12T00:36:52.669Z,22.90
2022-09-12T00:37:24.070Z,22.91
2022-09-12T00:37:55.460Z,22.90
2022-09-12T00:38:26.865Z,22.91
2022-09-12T00:38:58.251Z,22.90
2022-09-12T00:39:29.637Z,22.90
2022-09-12T00:40:01.118Z,22.89
2022-09-12T00:40:32.523Z,22.88
2022-09-12T00:41:03.913Z,22.87
2022-09-12T00:41:35.313Z,22.88
2022-09-12T00:42:06.780Z,22.87
2022-09-12T00:42:38.170Z,22.87
2022-09-12T00:43:09.568Z,22.87
2022-09-12T00:43:40.976Z,22.87
2022-09-12T00:44:12.358Z,22.87
2022-09-12T00:44:43.747Z,22.86
2022-09-12T00:45:15.131Z,22.85
2022-09-12T00:45:46.552Z,22.86
2022-09-12T00:46:17.963Z,22.86
2022-09-12T00:46:49.344Z,22.85
2022-09-12T00:47:20.790Z,22.86
2022-09-12T00:47:52.173Z,22.85
2022-09-12T00:48:23.580Z,22.85
2022-09-12T00:48:54.963Z,22.84
2022-09-12T00:49:26.368Z,22.85
2022-09-12T00:49:57.755Z,22.84
2022-09-12T00:50:29.152Z,22.84
2022-09-12T00:51:00.533Z,22.84
2022-09-12T00:51:31.916Z,22.83
2022-09-12T00:52:03.313Z,22.83
2022-09-12T00:52:34.716Z,22.82
2022-09-12T00:53:06.115Z,22.81
2022-09-12T00:53:37.506Z,22.80
2022-09-12T00:54:08.912Z,22.81
2022-09-12T00:54:40.316Z,22.81
2022-09-12T00:55:11.700Z,22.79
2022-09-12T00:55:43.089Z,22.80
2022-09-12T00:56:14.471Z,22.79
2022-09-12T00:56:45.857Z,22.79
2022-09-12T00:57:17.244Z,22.79
2022-09-12T00:57:48.742Z,22.79
2022-09-12T00:58:20.140Z,22.79
2022-09-12T00:58:51.525Z,22.79
2022-09-12T00:59:22.903Z,22.78
2022-09-12T00:59:54.303Z,22.78
2022-09-12T01:00:25.724Z,22.77
2022-09-12T01:00:57.235Z,22.76
2022-09-12T01:01:32.344Z,22.76
2022-09-12T01:02:04.191Z,22.77
2022-09-12T01:02:35.762Z,22.76
2022-09-12T01:03:07.174Z,22.73
2022-09-12T01:03:38.558Z,22.75
2022-09-12T01:04:09.945Z,22.74
2022-09-12T01:04:41.328Z,22.74
2022-09-12T01:05:12.712Z,22.74
2022-09-12T01:05:44.188Z,22.73
2022-09-12T01:06:15.572Z,22.73
2022-09-12T01:06:46.958Z,22.73
2022-09-12T01:07:18.344Z,22.74
2022-09-12T01:07:49.835Z,22.73
2022-09-12T01:08:21.241Z,22.72
2022-09-12T01:08:52.639Z,22.73
2022-09-12T01:09:24.020Z,22.71
2022-09-12T01:09:55.418Z,22.72
2022-09-12T01:10:26.805Z,22.71
2022-09-12T01:10:58.227Z,22.70
2022-09-12T01:11:29.623Z,22.71
2022-09-12T01:12:01.007Z,22.69
2022-09-12T01:12:32.394Z,22.70
2022-09-12T01:13:03.812Z,22.69
2022-09-12T01:13:35.201Z,22.69
2022-09-12T01:14:06.602Z,22.69
2022-09-12T01:14:38.000Z,22.69
2022-09-12T01:15:09.379Z,22.69
2022-09-12T01:15:40.783Z,22.68
2022-09-12T01:16:12.195Z,22.67
2022-09-12T01:16:43.645Z,22.67
2022-09-12T01:17:15.040Z,22.67
2022-09-12T01:17:46.428Z,22.67
2022-09-12T01:18:17.831Z,22.65
2022-09-12T01:18:49.218Z,22.65
2022-09-12T01:19:20.609Z,22.65
2022-09-12T01:19:51.991Z,22.65
2022-09-12T01:20:23.398Z,22.65
2022-09-12T01:20:54.788Z,22.65
2022-09-12T01:21:26.190Z,22.65
2022-09-12T01:21:57.576Z,22.66
2022-09-12T01:22:28.973Z,22.65
2022-09-12T01:23:00.359Z,22.64
2022-09-12T01:23:31.804Z,22.65
2022-09-12T01:24:03.183Z,22.63
2022-09-12T01:24:34.592Z,22.63
2022-09-12T01:25:05.995Z,22.63
2022-09-12T01:25:37.377Z,22.64
2022-09-12T01:26:08.783Z,22.63
2022-09-12T01:26:40.163Z,22.62
2022-09-12T01:27:11.548Z,22.62
2022-09-12T01:27:42.957Z,22.61
2022-09-12T01:28:14.361Z,22.61
2022-09-12T01:28:45.979Z,22.61
2022-09-12T01:29:17.449Z,22.60
2022-09-12T01:29:48.836Z,22.61
2022-09-12T01:30:20.226Z,22.60
2022-09-12T01:30:51.648Z,22.60
2022-09-12T01:31:23.032Z,22.60
2022-09-12T01:31:54.461Z,22.59
2022-09-12T01:32:25.949Z,22.58
2022-09-12T01:32:57.352Z,22.58
2022-09-12T01:33:28.755Z,22.58
2022-09-12T01:34:00.227Z,22.58
2022-09-12T01:34:31.607Z,22.59
2022-09-12T01:35:02.986Z,22.59
2022-09-12T01:35:34.371Z,22.58
2022-09-12T01:36:05.770Z,22.57
2022-09-12T01:36:37.156Z,22.57
2022-09-12T01:37:08.544Z,22.57
2022-09-12T01:37:39.947Z,22.58
2022-09-12T01:38:11.336Z,22.58
2022-09-12T01:38:42.735Z,22.56
2022-09-12T01:39:14.180Z,22.57
2022-09-12T01:39:45.622Z,22.57
2022-09-12T01:40:17.067Z,22.56
2022-09-12T01:40:48.464Z,22.57
2022-09-12T01:41:19.852Z,22.55
2022-09-12T01:41:51.252Z,22.55
2022-09-12T01:42:22.656Z,22.55
2022-09-12T01:42:54.042Z,22.55
2022-09-12T01:43:25.441Z,22.55
2022-09-12T01:43:56.833Z,22.54
2022-09-12T01:44:28.339Z,22.52
2022-09-12T01:44:59.723Z,22.52
2022-09-12T01:45:31.140Z,22.53
2022-09-12T01:46:02.599Z,22.52
2022-09-12T01:46:34.100Z,22.52
2022-09-12T01:47:05.492Z,22.52
2022-09-12T01:47:36.898Z,22.53
2022-09-12T01:48:08.303Z,22.52
2022-09-12T01:48:39.697Z,22.52
2022-09-12T01:49:11.099Z,22.52
2022-09-12T01:49:42.528Z,22.51
2022-09-12T01:50:13.916Z,22.51
2022-09-12T01:50:45.386Z,22.50
2022-09-12T01:51:16.780Z,22.50
2022-09-12T01:51:48.187Z,22.49
2022-09-12T01:52:19.593Z,22.49
2022-09-12T01:52:50.980Z,22.50
2022-09-12T01:53:22.368Z,22.49
2022-09-12T01:53:53.748Z,22.48
2022-09-12T01:54:25.137Z,22.47
2022-09-12T01:54:56.568Z,22.47
2022-09-12T01:55:27.951Z,22.47
2022-09-12T01:55:59.331Z,22.47
2022-09-12T01:56:30.721Z,22.47
2022-09-12T01:57:02.128Z,22.47
2022-09-12T01:57:33.527Z,22.47
2022-09-12T01:58:04.916Z,22.47
2022-09-12T01:58:36.304Z,22.46
2022-09-12T01:59:07.707Z,22.45
2022-09-12T01:59:39.110Z,22.45
2022-09-12T02:00:10.527Z,22.45
2022-09-12T02:00:41.932Z,22.45
2022-09-12T02:01:13.373Z,22.45
2022-09-12T02:01:44.800Z,22.45
2022-09-12T02:02:16.231Z,22.45
2022-09-12T02:02:47.636Z,22.46
2022-09-12T02:03:19.021Z,22.44
2022-09-12T02:03:50.404Z,22.44
2022-09-12T02:04:21.809Z,22.44
2022-09-12T02:04:53.207Z,22.44
2022-09-12T02:05:24.704Z,22.43
2022-09-12T02:05:56.082Z,22.43
2022-09-12T02:06:27.488Z,22.42
2022-09-12T02:06:58.876Z,22.42
2022-09-12T02:07:30.257Z,22.41
2022-09-12T02:08:01.641Z,22.42
2022-09-12T02:08:33.051Z,22.39
2022-09-12T02:09:04.444Z,22.42
2022-09-12T02:09:35.848Z,22.40
2022-09-12T02:10:07.312Z,22.39
2022-09-12T02:10:38.697Z,22.39
2022-09-12T02:11:10.099Z,22.39
2022-09-12T02:11:41.481Z,22.39
2022-09-12T02:12:12.880Z,22.39
2022-09-12T02:12:44.259Z,22.39
2022-09-12T02:13:15.662Z,22.39
2022-09-12T02:13:47.079Z,22.38
2022-09-12T02:14:18.539Z,22.38
2022-09-12T02:14:49.920Z,22.38
2022-09-12T02:15:21.305Z,22.36
2022-09-12T02:15:52.712Z,22.36
2022-09-12T02:16:24.136Z,22.36
2022-09-12T02:16:55.538Z,22.35
2022-09-12T02:17:26.926Z,22.36
2022-09-12T02:17:58.321Z,22.35
2022-09-12T02:18:29.716Z,22.35
2022-09-12T02:19:01.104Z,22.34
2022-09-12T02:19:32.488Z,22.35
2022-09-12T02:20:03.872Z,22.34
2022-09-12T02:20:47.947Z,22.34
2022-09-12T02:21:20.096Z,22.33
2022-09-12T02:21:51.508Z,22.33
2022-09-12T02:22:22.896Z,22.32
2022-09-12T02:22:54.296Z,22.32
2022-09-12T02:23:25.684Z,22.32
2022-09-12T02:23:57.079Z,22.32
2022-09-12T02:24:28.490Z,22.32
2022-09-12T02:24:59.877Z,22.32
2022-09-12T02:25:31.373Z,22.31
2022-09-12T02:26:02.763Z,22.31
2022-09-12T02:26:34.149Z,22.30
2022-09-12T02:27:05.533Z,22.30
2022-09-12T02:27:36.926Z,22.30
2022-09-12T02:28:08.332Z,22.30
2022-09-12T02:28:39.740Z,22.30
2022-09-12T02:29:11.129Z,22.30
2022-09-12T02:29:42.513Z,22.28
2022-09-12T02:30:13.916Z,22.29
2022-09-12T02:30:45.474Z,22.29
2022-09-12T02:31:16.891Z,22.28
2022-09-12T02:31:48.276Z,22.28
2022-09-12T02:32:19.737Z,22.28
2022-09-12T02:32:51.124Z,22.27
2022-09-12T02:33:22.508Z,22.27
2022-09-12T02:33:53.887Z,22.27
2022-09-12T02:34:25.285Z,22.26
2022-09-12T02:34:56.685Z,22.25
2022-09-12T02:35:28.064Z,22.27
2022-09-12T02:35:59.491Z,22.26
2022-09-12T02:36:30.886Z,22.24
2022-09-12T02:37:02.267Z,22.24
2022-09-12T02:37:33.676Z,22.26
2022-09-12T02:38:05.083Z,22.24
2022-09-12T02:38:36.468Z,22.24
2022-09-12T02:39:07.859Z,22.24
2022-09-12T02:39:43.257Z,22.23
2022-09-12T02:40:16.506Z,22.23
2022-09-12T02:40:48.069Z,22.22
2022-09-12T02:41:19.456Z,22.23
2022-09-12T02:41:50.841Z,22.23
2022-09-12T02:42:22.248Z,22.22
2022-09-12T02:42:53.652Z,22.22
2022-09-12T02:43:25.041Z,22.22
2022-09-12T02:43:56.429Z,22.21
2022-09-12T02:44:27.837Z,22.20
2022-09-12T02:44:59.221Z,22.22
2022-09-12T02:45:30.649Z,22.21
2022-09-12T02:46:02.165Z,22.20
2022-09-12T02:46:33.610Z,22.20
2022-09-12T02:47:05.012Z,22.21
2022-09-12T02:47:36.427Z,22.19
2022-09-12T02:48:07.834Z,22.20
2022-09-12T02:48:41.406Z,22.20
2022-09-12T02:49:12.956Z,22.18
2022-09-12T02:49:44.356Z,22.19
2022-09-12T02:50:15.736Z,22.18
2022-09-12T02:50:47.120Z,22.19
2022-09-12T02:51:23.011Z,22.18
2022-09-12T02:51:55.200Z,22.17
2022-09-12T02:52:26.581Z,22.16
2022-09-12T02:52:57.980Z,22.16
2022-09-12T02:53:29.375Z,22.16
2022-09-12T02:54:00.756Z,22.17
2022-09-12T02:54:32.138Z,22.15
2022-09-12T02:55:03.526Z,22.16
2022-09-12T02:55:34.939Z,22.16
2022-09-12T02:56:06.332Z,22.15
2022-09-12T02:56:37.824Z,22.15
2022-09-12T02:57:09.217Z,22.15
2022-09-12T02:57:40.633Z,22.14
2022-09-12T02:58:12.015Z,22.15
2022-09-12T02:58:43.396Z,22.13
2022-09-12T02:59:14.779Z,22.13
2022-09-12T02:59:46.168Z,22.13
2022-09-12T03:00:17.576Z,22.13
2022-09-12T03:00:48.984Z,22.13
2022-09-12T03:01:20.398Z,22.13
2022-09-12T03:01:51.909Z,22.12
2022-09-12T03:02:23.328Z,22.13
2022-09-12T03:02:54.742Z,22.12
2022-09-12T03:03:26.125Z,22.12
2022-09-12T03:03:57.510Z,22.12
2022-09-12T03:04:28.924Z,22.11
2022-09-12T03:05:00.338Z,22.11
2022-09-12T03:05:31.732Z,22.10
2022-09-12T03:06:03.119Z,22.09
2022-09-12T03:06:34.506Z,22.09
2022-09-12T03:07:06.025Z,22.09
2022-09-12T03:07:37.438Z,22.09
2022-09-12T03:08:08.826Z,22.09
2022-09-12T03:08:40.205Z,22.09
2022-09-12T03:09:11.601Z,22.08
2022-09-12T03:09:42.987Z,22.08
2022-09-12T03:10:14.383Z,22.08
2022-09-12T03:10:45.760Z,22.07
2022-09-12T03:11:17.144Z,22.07
2022-09-12T03:11:48.527Z,22.06
2022-09-12T03:12:19.992Z,22.06
2022-09-12T03:12:51.377Z,22.05
2022-09-12T03:13:22.769Z,22.06
2022-09-12T03:13:54.179Z,22.05
2022-09-12T03:14:25.559Z,22.04
2022-09-12T03:14:56.945Z,22.05
2022-09-12T03:15:28.352Z,22.05
2022-09-12T03:15:59.755Z,22.04
2022-09-12T03:16:31.163Z,22.05
2022-09-12T03:17:02.555Z,22.05
2022-09-12T03:17:34.072Z,22.04
2022-09-12T03:18:05.459Z,22.04
2022-09-12T03:18:36.844Z,22.04
2022-09-12T03:19:08.229Z,22.04
2022-09-12T03:19:39.616Z,22.03
2022-09-12T03:20:11.001Z,22.03
2022-09-12T03:20:42.380Z,22.03
2022-09-12T03:21:13.764Z,22.03
2022-09-12T03:21:45.145Z,22.02
2022-09-12T03:22:16.572Z,22.02
2022-09-12T03:22:50.999Z,22.01
2022-09-12T03:23:22.635Z,22.00
2022-09-12T03:23:54.019Z,22.01
2022-09-12T03:24:25.400Z,22.01
2022-09-12T03:24:56.800Z,22.00
2022-09-12T03:25:28.204Z,22.01
2022-09-12T03:25:59.583Z,22.01
2022-09-12T03:26:30.980Z,22.00
2022-09-12T03:27:02.397Z,22.00
2022-09-12T03:27:33.775Z,22.00
2022-09-12T03:28:05.238Z,21.99
2022-09-12T03:28:36.625Z,21.99
2022-09-12T03:29:08.036Z,21.99
2022-09-12T03:29:39.415Z,21.98
2022-09-12T03:30:10.791Z,21.98
2022-09-12T03:30:42.228Z,21.97
2022-09-12T03:31:13.649Z,21.97
2022-09-12T03:31:45.051Z,21.97
2022-09-12T03:32:16.461Z,21.97
2022-09-12T03:32:47.842Z,21.97
2022-09-12T03:33:19.227Z,21.97
2022-09-12T03:33:50.627Z,21.95
2022-09-12T03:34:22.028Z,21.95
2022-09-12T03:34:53.407Z,21.95
2022-09-12T03:35:24.813Z,21.94
2022-09-12T03:35:56.215Z,21.94
2022-09-12T03:36:27.591Z,21.93
2022-09-12T03:36:58.995Z,21.94
2022-09-12T03:37:30.384Z,21.94
2022-09-12T03:38:01.767Z,21.93
2022-09-12T03:38:33.262Z,21.93
2022-09-12T03:39:04.647Z,21.92
2022-09-12T03:39:36.057Z,21.92
2022-09-12T03:40:07.536Z,21.92
2022-09-12T03:40:38.994Z,21.91
2022-09-12T03:41:10.376Z,21.91
2022-09-12T03:41:41.761Z,21.91
2022-09-12T03:42:13.176Z,21.91
2022-09-12T03:42:44.586Z,21.90
2022-09-12T03:43:15.971Z,21.90
2022-09-12T03:43:47.440Z,21.90
2022-09-12T03:44:18.823Z,21.91
2022-09-12T03:44:50.217Z,21.90
2022-09-12T03:45:21.598Z,21.89
2022-09-12T03:45:53.030Z,21.89
2022-09-12T03:46:24.459Z,21.89
2022-09-12T03:46:55.853Z,21.88
2022-09-12T03:47:27.255Z,21.89
2022-09-12T03:47:58.651Z,21.89
2022-09-12T03:48:30.036Z,21.89
2022-09-12T03:49:01.476Z,21.89
2022-09-12T03:49:32.864Z,21.88
2022-09-12T03:50:04.272Z,21.87
2022-09-12T03:50:35.656Z,21.87
2022-09-12T03:51:07.057Z,21.87
2022-09-12T03:51:38.463Z,21.87
2022-09-12T03:52:09.843Z,21.86
2022-09-12T03:52:41.231Z,21.87
2022-09-12T03:53:16.919Z,21.86
2022-09-12T03:53:48.687Z,21.87
2022-09-12T03:54:20.141Z,21.85
2022-09-12T03:54:51.530Z,21.85
2022-09-12T03:55:22.927Z,21.85
2022-09-12T03:55:54.333Z,21.85
2022-09-12T03:56:25.741Z,21.85
2022-09-12T03:56:57.134Z,21.85
2022-09-12T03:57:28.521Z,21.84
2022-09-12T03:57:59.927Z,21.83
2022-09-12T03:58:31.312Z,21.83
2022-09-12T03:59:02.691Z,21.83
2022-09-12T03:59:34.204Z,21.83
2022-09-12T04:00:05.587Z,21.83
2022-09-12T04:00:36.968Z,21.81
2022-09-12T04:01:08.372Z,21.83
2022-09-12T04:01:39.816Z,21.81
2022-09-12T04:02:11.254Z,21.82
2022-09-12T04:02:42.684Z,21.81
2022-09-12T04:03:14.208Z,21.81
2022-09-12T04:03:45.587Z,21.80
2022-09-12T04:04:16.976Z,21.80
2022-09-12T04:04:48.479Z,21.81
2022-09-12T04:05:19.915Z,21.79
2022-09-12T04:05:51.319Z,21.80
2022-09-12T04:06:22.701Z,21.80
2022-09-12T04:06:54.108Z,21.79
2022-09-12T04:07:25.518Z,21.80
2022-09-12T04:07:56.924Z,21.79
2022-09-12T04:08:28.299Z,21.77
2022-09-12T04:08:59.696Z,21.78
2022-09-12T04:09:31.091Z,21.78
2022-09-12T04:10:02.637Z,21.78
2022-09-12T04:10:34.042Z,21.78
2022-09-12T04:11:05.421Z,21.77
2022-09-12T04:11:36.813Z,21.77
2022-09-12T04:12:08.211Z,21.77
2022-09-12T04:12:39.633Z,21.77
2022-09-12T04:13:11.042Z,21.76
2022-09-12T04:13:42.419Z,21.76
2022-09-12T04:14:13.805Z,21.76
2022-09-12T04:14:45.193Z,21.76
2022-09-12T04:15:16.688Z,21.76
2022-09-12T04:15:48.077Z,21.75
2022-09-12T04:16:19.540Z,21.74
2022-09-12T04:16:51.020Z,21.76
2022-09-12T04:17:22.463Z,21.75
2022-09-12T04:17:53.859Z,21.73
2022-09-12T04:18:25.267Z,21.74
2022-09-12T04:18:56.716Z,21.73
2022-09-12T04:19:28.131Z,21.72
2022-09-12T04:19:59.539Z,21.73
2022-09-12T04:20:30.970Z,21.73
2022-09-12T04:21:02.347Z,21.74
2022-09-12T04:21:33.748Z,21.72
2022-09-12T04:22:05.151Z,21.72
2022-09-12T04:22:36.555Z,21.72
2022-09-12T04:23:07.942Z,21.72
2022-09-12T04:23:39.366Z,21.73
2022-09-12T04:24:10.937Z,21.72
2022-09-12T04:24:42.323Z,21.71
2022-09-12T04:25:13.725Z,21.70
2022-09-12T04:25:45.128Z,21.70
2022-09-12T04:26:16.530Z,21.70
2022-09-12T04:26:47.933Z,21.71
2022-09-12T04:27:19.332Z,21.70
2022-09-12T04:27:50.716Z,21.70
2022-09-12T04:28:22.109Z,21.71
2022-09-12T04:28:53.508Z,21.70
2022-09-12T04:29:24.936Z,21.70
2022-09-12T04:29:56.324Z,21.70
2022-09-12T04:30:27.752Z,21.70
2022-09-12T04:30:59.188Z,21.70
2022-09-12T04:31:30.633Z,21.70
2022-09-12T04:32:02.042Z,21.71
2022-09-12T04:32:33.445Z,21.71
2022-09-12T04:33:07.987Z,21.70
2022-09-12T04:33:39.638Z,21.71
2022-09-12T04:34:11.045Z,21.71
2022-09-12T04:34:42.459Z,21.71
2022-09-12T04:35:13.843Z,21.71
2022-09-12T04:35:45.293Z,21.71
2022-09-12T04:36:16.812Z,21.71
2022-09-12T04:36:48.260Z,21.71
2022-09-12T04:37:19.643Z,21.72
2022-09-12T04:37:51.191Z,21.73
2022-09-12T04:38:22.598Z,21.73
2022-09-12T04:38:54.003Z,21.73
2022-09-12T04:39:25.383Z,21.74
2022-09-12T04:39:56.910Z,21.74
2022-09-12T04:40:28.319Z,21.74
2022-09-12T04:40:59.704Z,21.74
2022-09-12T04:41:31.125Z,21.74
2022-09-12T04:42:02.508Z,21.74
2022-09-12T04:42:33.904Z,21.76
2022-09-12T04:43:05.287Z,21.77
2022-09-12T04:43:36.667Z,21.78
2022-09-12T04:44:08.076Z,21.78
2022-09-12T04:44:39.456Z,21.77
2022-09-12T04:45:10.955Z,21.78
2022-09-12T04:45:42.381Z,21.79
2022-09-12T04:46:13.802Z,21.80
2022-09-12T04:46:45.219Z,21.80
2022-09-12T04:47:16.619Z,21.80
2022-09-12T04:47:48.019Z,21.81
2022-09-12T04:48:19.400Z,21.81
2022-09-12T04:48:54.615Z,21.83
2022-09-12T04:49:28.195Z,21.83
2022-09-12T04:49:59.575Z,21.84
2022-09-12T04:50:31.040Z,21.85
2022-09-12T04:51:02.420Z,21.85
2022-09-12T04:51:33.813Z,21.86
2022-09-12T04:52:05.208Z,21.87
2022-09-12T04:52:36.592Z,21.88
2022-09-12T04:53:07.975Z,21.87
2022-09-12T04:53:39.388Z,21.89
2022-09-12T04:54:10.772Z,21.89
2022-09-12T04:54:42.155Z,21.89
2022-09-12T04:55:13.546Z,21.90
2022-09-12T04:55:45.020Z,21.91
2022-09-12T04:56:16.400Z,21.91
2022-09-12T04:56:47.788Z,21.92
2022-09-12T04:57:19.172Z,21.92
2022-09-12T04:57:50.553Z,21.93
2022-09-12T04:58:21.961Z,21.93
2022-09-12T04:58:53.353Z,21.94
2022-09-12T04:59:24.740Z,21.95
2022-09-12T04:59:56.139Z,21.96
2022-09-12T05:00:27.548Z,21.96
2022-09-12T05:00:59.106Z,21.95
2022-09-12T05:01:30.618Z,21.97
2022-09-12T05:02:02.109Z,21.97
2022-09-12T05:02:33.545Z,21.99
2022-09-12T05:03:04.940Z,21.98
2022-09-12T05:03:36.320Z,21.99
2022-09-12T05:04:07.704Z,22.00
2022-09-12T05:04:39.119Z,22.00
2022-09-12T05:05:10.502Z,22.01
2022-09-12T05:05:41.892Z,22.02
2022-09-12T05:06:13.417Z,22.02
2022-09-12T05:06:44.807Z,22.02
2022-09-12T05:07:16.199Z,22.02
2022-09-12T05:07:47.603Z,22.04
2022-09-12T05:08:18.981Z,22.04
2022-09-12T05:08:50.360Z,22.05
2022-09-12T05:09:21.743Z,22.05
2022-09-12T05:09:53.147Z,22.06
2022-09-12T05:10:24.559Z,22.06
2022-09-12T05:10:55.947Z,22.06
2022-09-12T05:11:41.274Z,22.07
2022-09-12T05:12:18.757Z,22.07
2022-09-12T05:12:50.141Z,22.06
2022-09-12T05:13:21.544Z,22.07
2022-09-12T05:13:52.959Z,22.09
2022-09-12T05:14:24.369Z,22.09
2022-09-12T05:14:55.792Z,22.10
2022-09-12T05:15:27.171Z,22.10
2022-09-12T05:15:58.561Z,22.11
2022-09-12T05:16:29.982Z,22.10
2022-09-12T05:17:01.700Z,22.11
2022-09-12T05:17:33.464Z,22.11
2022-09-12T05:18:04.845Z,22.12
2022-09-12T05:18:36.327Z,22.13
2022-09-12T05:19:07.885Z,22.12
2022-09-12T05:19:39.275Z,22.12
2022-09-12T05:20:10.657Z,22.12
2022-09-12T05:20:42.035Z,22.13
2022-09-12T05:21:13.431Z,22.13
2022-09-12T05:21:44.815Z,22.14
2022-09-12T05:22:16.208Z,22.14
2022-09-12T05:22:47.592Z,22.14
2022-09-12T05:23:18.972Z,22.14
2022-09-12T05:23:50.352Z,22.14
2022-09-12T05:24:21.843Z,22.15
2022-09-12T05:24:53.322Z,22.14
2022-09-12T05:25:24.727Z,22.14
2022-09-12T05:25:56.109Z,22.15
2022-09-12T05:26:27.537Z,22.14
2022-09-12T05:26:58.925Z,22.15
2022-09-12T05:27:30.311Z,22.16
2022-09-12T05:28:01.695Z,22.16
2022-09-12T05:28:33.124Z,22.15
2022-09-12T05:29:04.507Z,22.15
2022-09-12T05:29:35.999Z,22.16
2022-09-12T05:30:07.406Z,22.15
2022-09-12T05:30:38.844Z,22.15
2022-09-12T05:31:10.250Z,22.16
2022-09-12T05:31:41.676Z,22.16
2022-09-12T05:32:13.068Z,22.16
2022-09-12T05:32:44.454Z,22.16
2022-09-12T05:33:15.860Z,22.17
2022-09-12T05:33:47.242Z,22.15
2022-09-12T05:34:18.629Z,22.15
2022-09-12T05:34:50.071Z,22.15
2022-09-12T05:35:21.471Z,22.15
2022-09-12T05:35:52.856Z,22.16
2022-09-12T05:36:24.242Z,22.16
2022-09-12T05:36:55.620Z,22.16
2022-09-12T05:37:27.004Z,22.17
2022-09-12T05:37:58.387Z,22.18
2022-09-12T05:38:29.767Z,22.16
2022-09-12T05:39:01.153Z,22.15
2022-09-12T05:39:32.583Z,22.16
2022-09-12T05:40:04.083Z,22.16
2022-09-12T05:40:35.624Z,22.16
2022-09-12T05:41:07.007Z,22.16
2022-09-12T05:41:38.476Z,22.15
2022-09-12T05:42:09.889Z,22.16
2022-09-12T05:42:41.428Z,22.15
2022-09-12T05:43:12.816Z,22.15
2022-09-12T05:43:44.280Z,22.15
2022-09-12T05:44:15.683Z,22.14
2022-09-12T05:44:47.093Z,22.15
2022-09-12T05:45:18.476Z,22.14
2022-09-12T05:45:49.884Z,22.14
2022-09-12T05:46:21.307Z,22.14
2022-09-12T05:46:52.716Z,22.14
2022-09-12T05:47:24.128Z,22.14
2022-09-12T05:47:55.535Z,22.14
2022-09-12T05:48:26.946Z,22.14
2022-09-12T05:48:58.451Z,22.15
2022-09-12T05:49:29.843Z,22.13
2022-09-12T05:50:01.224Z,22.13
2022-09-12T05:50:32.623Z,22.14
2022-09-12T05:51:04.004Z,22.12
2022-09-12T05:51:35.435Z,22.12
2022-09-12T05:52:06.839Z,22.12
2022-09-12T05:52:38.227Z,22.11
2022-09-12T05:53:09.623Z,22.12
2022-09-12T05:53:41.009Z,22.12
2022-09-12T05:54:12.504Z,22.12
2022-09-12T05:54:43.903Z,22.10
2022-09-12T05:55:15.285Z,22.11
2022-09-12T05:55:46.696Z,22.10
2022-09-12T05:56:18.076Z,22.09
2022-09-12T05:56:49.457Z,22.09
2022-09-12T05:57:20.843Z,22.09
2022-09-12T05:57:52.253Z,22.09
2022-09-12T05:58:23.631Z,22.09
2022-09-12T05:58:55.028Z,22.09
2022-09-12T05:59:26.455Z,22.07
2022-09-12T05:59:57.856Z,22.06
2022-09-12T06:00:33.285Z,22.07
2022-09-12T06:01:05.007Z,22.06
2022-09-12T06:01:36.524Z,22.07
2022-09-12T06:02:08.007Z,22.07
2022-09-12T06:02:39.440Z,22.05
2022-09-12T06:03:10.841Z,22.06
2022-09-12T06:03:42.250Z,22.06
2022-09-12T06:04:14.007Z,22.05
2022-09-12T06:04:45.413Z,22.05
2022-09-12T06:05:16.796Z,22.04
2022-09-12T06:05:50.684Z,22.03
2022-09-12T06:06:22.212Z,22.04
2022-09-12T06:06:53.604Z,22.03
2022-09-12T06:07:25.020Z,22.03
2022-09-12T06:07:56.423Z,22.04
2022-09-12T06:08:27.805Z,22.04
2022-09-12T06:08:59.207Z,22.05
2022-09-12T06:09:30.709Z,22.05
2022-09-12T06:10:02.092Z,22.06
2022-09-12T06:10:33.485Z,22.05
2022-09-12T06:11:04.890Z,22.05
2022-09-12T06:11:36.293Z,22.05
2022-09-12T06:12:07.684Z,22.06
2022-09-12T06:12:39.064Z,22.06
2022-09-12T06:13:10.445Z,22.07
2022-09-12T06:13:41.838Z,22.07
2022-09-12T06:14:13.232Z,22.07
2022-09-12T06:14:44.769Z,22.07
2022-09-12T06:15:16.151Z,22.07
2022-09-12T06:15:47.561Z,22.07
2022-09-12T06:16:19.028Z,22.08
2022-09-12T06:16:50.494Z,22.07
2022-09-12T06:17:21.959Z,22.09
2022-09-12T06:17:53.348Z,22.08
2022-09-12T06:18:24.734Z,22.09
2022-09-12T06:18:56.190Z,22.09
2022-09-12T06:19:27.574Z,22.10
2022-09-12T06:19:59.105Z,22.10
2022-09-12T06:20:30.485Z,22.12
2022-09-12T06:21:01.883Z,22.12
2022-09-12T06:21:33.281Z,22.12
2022-09-12T06:22:04.669Z,22.13
2022-09-12T06:22:36.061Z,22.13
2022-09-12T06:23:07.472Z,22.14
2022-09-12T06:23:38.857Z,22.14
2022-09-12T06:24:10.266Z,22.15
2022-09-12T06:24:41.664Z,22.15
2022-09-12T06:25:13.089Z,22.15
2022-09-12T06:25:47.258Z,22.17
2022-09-12T06:26:18.639Z,22.16
2022-09-12T06:26:50.032Z,22.17
2022-09-12T06:27:21.443Z,22.17
2022-09-12T06:27:52.844Z,22.18
2022-09-12T06:28:24.297Z,22.20
2022-09-12T06:28:55.684Z,22.20
2022-09-12T06:29:27.068Z,22.20
2022-09-12T06:29:58.472Z,22.21
2022-09-12T06:30:29.990Z,22.22
2022-09-12T06:31:01.476Z,22.21
2022-09-12T06:31:32.887Z,22.23
2022-09-12T06:32:04.291Z,22.24
2022-09-12T06:32:35.680Z,22.24
2022-09-12T06:33:07.069Z,22.25
2022-09-12T06:33:38.471Z,22.25
2022-09-12T06:34:09.870Z,22.27
2022-09-12T06:34:41.264Z,22.27
2022-09-12T06:35:12.668Z,22.28
2022-09-12T06:35:44.189Z,22.29
2022-09-12T06:36:15.573Z,22.29
2022-09-12T06:36:46.955Z,22.29
2022-09-12T06:37:18.335Z,22.30
2022-09-12T06:37:49.724Z,22.31
2022-09-12T06:38:21.116Z,22.32
2022-09-12T06:38:52.517Z,22.33
2022-09-12T06:39:23.896Z,22.35
2022-09-12T06:39:56.117Z,22.35
2022-09-12T06:40:27.547Z,22.35
2022-09-12T06:40:59.059Z,22.37
2022-09-12T06:41:30.444Z,22.37
2022-09-12T06:42:01.849Z,22.37
2022-09-12T06:42:33.247Z,22.39
2022-09-12T06:43:04.631Z,22.40
2022-09-12T06:43:36.012Z,22.42
2022-09-12T06:44:07.396Z,22.42
2022-09-12T06:44:38.791Z,22.42
2022-09-12T06:45:10.200Z,22.44
2022-09-12T06:45:41.639Z,22.44